アティラウ の空港の天気 - METARとTAF

Atyrau Airport ( UATG / GUW ) - カザフスタン Atyrau
飛行場実況気象(Metar)
観測時間08/11 11:30 ORAT (08/11 06:30 UTC)
風向・風速北 4m/s
視程10km以上
天気現象
なし
気温26℃
湿度28%
気圧1010hPa
METARUATG 110630Z 35004MPS 300V030 CAVOK 26/06 Q1010 R32/CLRD70 NOSIG RMK QFE759/1012
過去の天気等 Google飛行場航空写真 Wunderground天気予報

過去48時間のMETAR

飛行場予報(TAF)
発表時間: 8/11 10:02 ORAT (8/11 05:02 UTC)
予報対象時間: 11日11時 ORAT ~ 12日11時 ORAT
風向・風速北北西 10m/s
視程10km以上
なし
11日20時 ORAT ~ 11日22時 ORAT に徐々に
風向・風速不定 3m/s
TAF UATG 110502Z 1106/1206 33010MPS CAVOK TX29/1109Z TN15/1201Z
BECMG 1115/1117 VRB03MPS